Time;durP1;ratioP1;P1;durP2;ratioP2;P2;SDS_P1;SDS_P2;PMS_P1;PMS_P2;Temp;Humidity;BMP_temperature;BMP_pressure;BME280_temperature;BME280_humidity;BME280_pressure;Samples;Min_cycle;Max_cycle;Signal;HPM_P1;HPM_P2
2022/03/08 00:00:35;;;;;;;29.90;16.15;;;;;;;;;;5053658;28;20090;-73
2022/03/08 00:03:00;;;;;;;29.30;16.83;;;;;;;;;;5071477;28;20370;-72
2022/03/08 00:05:26;;;;;;;27.70;16.45;;;;;;;;;;5071347;28;20447;-72
2022/03/08 00:07:51;;;;;;;27.52;15.90;;;;;;;;;;5064840;28;20086;-73
2022/03/08 00:10:16;;;;;;;27.55;15.55;;;;;;;;;;5052630;28;20074;-72
2022/03/08 00:12:42;;;;;;;32.97;16.42;;;;;;;;;;5067813;28;20394;-72
2022/03/08 00:15:11;;;;;;;26.30;15.75;;;;;;;;;;5058299;28;20020;-73
2022/03/08 00:17:36;;;;;;;33.08;17.60;;;;;;;;;;5071254;28;20029;-72
2022/03/08 00:20:03;;;;;;;30.55;16.67;;;;;;;;;;5072343;28;20043;-72
2022/03/08 00:22:28;;;;;;;27.33;16.42;;;;;;;;;;5064856;28;20017;-72
2022/03/08 00:24:54;;;;;;;31.50;17.40;;;;;;;;;;5065789;28;20031;-72
2022/03/08 00:27:19;;;;;;;30.40;16.90;;;;;;;;;;5061487;28;20016;-72
2022/03/08 00:29:44;;;;;;;30.08;17.15;;;;;;;;;;5072194;28;20020;-72
2022/03/08 00:32:09;;;;;;;31.17;16.38;;;;;;;;;;5071358;28;20033;-72
2022/03/08 00:34:34;;;;;;;27.75;15.68;;;;;;;;;;5071649;28;20385;-72
2022/03/08 00:36:59;;;;;;;30.05;16.60;;;;;;;;;;5072207;28;20031;-72
2022/03/08 00:39:25;;;;;;;27.02;16.23;;;;;;;;;;5070717;28;20024;-72
2022/03/08 00:41:50;;;;;;;30.88;16.48;;;;;;;;;;5070839;28;20035;-72
2022/03/08 00:44:15;;;;;;;32.15;17.60;;;;;;;;;;5071885;28;20035;-72
2022/03/08 00:46:40;;;;;;;28.92;16.58;;;;;;;;;;5072021;28;20027;-72
2022/03/08 00:49:05;;;;;;;27.88;16.17;;;;;;;;;;5062035;28;20207;-72
2022/03/08 00:51:31;;;;;;;30.08;17.05;;;;;;;;;;5054586;28;20016;-72
2022/03/08 00:53:56;;;;;;;30.45;16.90;;;;;;;;;;5070540;28;20036;-72
2022/03/08 00:56:21;;;;;;;31.95;17.20;;;;;;;;;;5071538;28;20020;-72
2022/03/08 00:58:46;;;;;;;30.77;17.98;;;;;;;;;;5070632;28;20036;-73
2022/03/08 01:01:12;;;;;;;30.45;16.23;;;;;;;;;;5069393;28;20040;-72
2022/03/08 01:03:37;;;;;;;31.27;16.90;;;;;;;;;;5069730;28;20020;-73
2022/03/08 01:06:02;;;;;;;30.75;16.88;;;;;;;;;;5053613;28;20405;-72
2022/03/08 01:08:27;;;;;;;31.95;16.35;;;;;;;;;;5050486;28;20389;-72
2022/03/08 01:10:52;;;;;;;33.17;17.15;;;;;;;;;;5051404;28;20493;-72
2022/03/08 01:13:18;;;;;;;30.05;16.50;;;;;;;;;;5061591;28;20035;-72
2022/03/08 01:15:43;;;;;;;31.42;17.13;;;;;;;;;;5052357;28;20031;-72
2022/03/08 01:18:08;;;;;;;29.05;17.05;;;;;;;;;;5061232;28;20491;-73
2022/03/08 01:20:33;;;;;;;33.47;18.25;;;;;;;;;;5063941;28;20033;-71
2022/03/08 01:22:58;;;;;;;27.00;16.10;;;;;;;;;;5051311;28;20127;-73
2022/03/08 01:25:24;;;;;;;28.67;16.58;;;;;;;;;;5049859;28;20077;-73
2022/03/08 01:27:49;;;;;;;34.40;17.67;;;;;;;;;;5057410;28;20497;-73
2022/03/08 01:30:14;;;;;;;30.35;16.45;;;;;;;;;;5068807;28;20512;-73
2022/03/08 01:32:40;;;;;;;31.63;17.13;;;;;;;;;;5053112;28;20051;-71
2022/03/08 01:35:05;;;;;;;29.60;16.55;;;;;;;;;;5069689;28;20021;-73
2022/03/08 01:37:30;;;;;;;29.88;16.02;;;;;;;;;;5058592;28;20377;-73
2022/03/08 01:39:55;;;;;;;29.33;16.50;;;;;;;;;;5062091;28;20029;-73
2022/03/08 01:42:21;;;;;;;34.83;17.05;;;;;;;;;;5066326;28;20032;-72
2022/03/08 01:44:46;;;;;;;32.47;17.33;;;;;;;;;;5062947;28;20480;-72
2022/03/08 01:47:15;;;;;;;29.58;16.73;;;;;;;;;;5068606;28;20070;-72
2022/03/08 01:49:40;;;;;;;35.28;18.50;;;;;;;;;;5070494;28;20028;-72
2022/03/08 01:52:06;;;;;;;31.40;18.27;;;;;;;;;;5051904;28;20029;-72
2022/03/08 01:54:31;;;;;;;30.98;17.30;;;;;;;;;;5049602;28;20095;-72
2022/03/08 01:56:56;;;;;;;32.92;17.40;;;;;;;;;;5066036;28;20063;-72
2022/03/08 01:59:21;;;;;;;33.33;17.50;;;;;;;;;;5066414;28;20024;-71
2022/03/08 02:01:46;;;;;;;28.63;16.52;;;;;;;;;;5067411;28;20101;-72
2022/03/08 02:04:12;;;;;;;28.95;16.67;;;;;;;;;;5070436;28;20052;-72
2022/03/08 02:06:37;;;;;;;31.63;17.00;;;;;;;;;;5070499;28;20505;-72
2022/03/08 02:09:02;;;;;;;29.83;17.08;;;;;;;;;;5063681;28;20040;-73
2022/03/08 02:11:27;;;;;;;34.25;16.75;;;;;;;;;;5050611;28;20489;-73
2022/03/08 02:13:55;;;;;;;32.22;17.48;;;;;;;;;;5065729;28;20072;-71
2022/03/08 02:16:20;;;;;;;33.60;17.35;;;;;;;;;;5067565;28;20027;-73
2022/03/08 02:18:45;;;;;;;30.02;16.60;;;;;;;;;;5062459;28;20032;-71
2022/03/08 02:21:11;;;;;;;30.38;17.48;;;;;;;;;;5068866;28;20400;-70
2022/03/08 02:23:36;;;;;;;30.40;17.05;;;;;;;;;;5058993;28;20017;-73
2022/03/08 02:26:01;;;;;;;29.55;16.55;;;;;;;;;;5065637;28;20104;-71
2022/03/08 02:28:27;;;;;;;27.92;16.23;;;;;;;;;;5072755;28;20028;-72
2022/03/08 02:30:53;;;;;;;34.67;18.25;;;;;;;;;;5068003;28;20044;-72
2022/03/08 02:33:18;;;;;;;31.60;16.60;;;;;;;;;;5070026;28;20016;-72
2022/03/08 02:35:44;;;;;;;31.73;17.38;;;;;;;;;;5058973;28;20036;-72
2022/03/08 02:38:09;;;;;;;31.65;17.20;;;;;;;;;;5069954;28;20020;-72
2022/03/08 02:40:35;;;;;;;28.83;15.60;;;;;;;;;;5051802;28;20470;-72
2022/03/08 02:43:00;;;;;;;27.88;16.35;;;;;;;;;;5065568;28;20025;-72
2022/03/08 02:45:25;;;;;;;34.67;17.85;;;;;;;;;;5049985;28;20515;-72
2022/03/08 02:47:51;;;;;;;32.65;16.67;;;;;;;;;;5052250;28;20025;-72
2022/03/08 02:50:16;;;;;;;29.50;16.60;;;;;;;;;;5059451;28;20409;-72
2022/03/08 02:52:43;;;;;;;32.22;16.50;;;;;;;;;;5056534;28;20064;-72
2022/03/08 02:55:08;;;;;;;30.67;16.50;;;;;;;;;;5068538;28;20033;-72
2022/03/08 02:57:33;;;;;;;28.77;16.38;;;;;;;;;;5050992;28;20029;-72
2022/03/08 02:59:59;;;;;;;31.65;16.77;;;;;;;;;;5078872;28;20020;-72
2022/03/08 03:02:24;;;;;;;32.25;17.15;;;;;;;;;;5063065;28;20113;-71
2022/03/08 03:04:49;;;;;;;30.75;17.13;;;;;;;;;;5072508;28;20107;-72
2022/03/08 03:07:14;;;;;;;30.65;17.25;;;;;;;;;;5065926;28;20488;-72
2022/03/08 03:09:39;;;;;;;30.80;17.05;;;;;;;;;;5072336;28;20032;-71
2022/03/08 03:12:05;;;;;;;32.22;17.35;;;;;;;;;;5065684;28;20447;-72
2022/03/08 03:14:30;;;;;;;29.20;16.20;;;;;;;;;;5069416;28;20056;-72
2022/03/08 03:16:55;;;;;;;31.58;15.90;;;;;;;;;;5066779;28;20052;-72
2022/03/08 03:19:20;;;;;;;34.22;17.90;;;;;;;;;;5067336;28;20372;-72
2022/03/08 03:21:46;;;;;;;33.53;17.23;;;;;;;;;;5053769;28;20029;-72
2022/03/08 03:24:11;;;;;;;28.38;16.52;;;;;;;;;;5053471;28;20032;-72
2022/03/08 03:26:36;;;;;;;28.77;16.73;;;;;;;;;;5053490;28;20025;-72
2022/03/08 03:29:01;;;;;;;33.60;17.10;;;;;;;;;;5061243;28;20027;-72
2022/03/08 03:31:26;;;;;;;28.92;16.77;;;;;;;;;;5071051;28;20101;-72
2022/03/08 03:33:52;;;;;;;33.40;17.40;;;;;;;;;;5072925;28;20361;-71
2022/03/08 03:36:17;;;;;;;29.27;16.08;;;;;;;;;;5073169;28;20035;-71
2022/03/08 03:38:42;;;;;;;32.83;16.13;;;;;;;;;;5062003;28;20024;-71
2022/03/08 03:41:07;;;;;;;32.00;17.35;;;;;;;;;;5073157;28;20016;-72
2022/03/08 03:43:32;;;;;;;35.42;18.23;;;;;;;;;;5059495;28;20021;-72
2022/03/08 03:45:58;;;;;;;29.13;17.23;;;;;;;;;;5066221;28;20029;-71
2022/03/08 03:48:23;;;;;;;32.92;17.00;;;;;;;;;;5072876;28;20024;-72
2022/03/08 03:50:48;;;;;;;32.22;18.00;;;;;;;;;;5072959;28;20035;-72
2022/03/08 03:53:13;;;;;;;30.83;16.58;;;;;;;;;;5086389;28;20388;-71
2022/03/08 03:55:38;;;;;;;32.35;16.77;;;;;;;;;;5078416;28;20025;-71
2022/03/08 03:58:04;;;;;;;29.63;17.63;;;;;;;;;;5071660;28;20107;-71
2022/03/08 04:00:29;;;;;;;30.75;16.73;;;;;;;;;;5061435;28;20116;-71
2022/03/08 04:02:54;;;;;;;35.90;16.92;;;;;;;;;;5060650;28;20499;-71
2022/03/08 04:05:19;;;;;;;30.73;17.20;;;;;;;;;;5071301;28;20020;-72
2022/03/08 04:07:44;;;;;;;31.33;17.05;;;;;;;;;;5071254;28;20032;-72
2022/03/08 04:10:10;;;;;;;30.73;15.75;;;;;;;;;;5062157;28;20074;-71
2022/03/08 04:12:35;;;;;;;32.92;17.45;;;;;;;;;;5060774;28;20100;-72
2022/03/08 04:15:01;;;;;;;29.42;16.25;;;;;;;;;;5056808;28;20083;-72
2022/03/08 04:17:26;;;;;;;28.42;16.17;;;;;;;;;;5052796;28;20090;-72
2022/03/08 04:19:51;;;;;;;32.03;17.60;;;;;;;;;;5071092;28;20178;-72
2022/03/08 04:22:17;;;;;;;30.63;17.80;;;;;;;;;;5066867;28;20035;-71
2022/03/08 04:24:42;;;;;;;33.15;17.48;;;;;;;;;;5056807;28;20652;-71
2022/03/08 04:27:07;;;;;;;31.02;16.88;;;;;;;;;;5071215;28;20052;-72
2022/03/08 04:29:32;;;;;;;31.20;17.63;;;;;;;;;;5070960;28;20082;-72
2022/03/08 04:31:57;;;;;;;32.42;17.02;;;;;;;;;;5071236;28;20056;-72
2022/03/08 04:34:23;;;;;;;34.15;17.75;;;;;;;;;;5070760;28;20055;-72
2022/03/08 04:36:48;;;;;;;33.90;16.98;;;;;;;;;;5065704;28;20445;-72
2022/03/08 04:39:13;;;;;;;33.85;17.30;;;;;;;;;;5055387;28;20035;-72
2022/03/08 04:41:38;;;;;;;40.38;17.60;;;;;;;;;;5061795;28;20024;-71
2022/03/08 04:44:03;;;;;;;33.67;18.05;;;;;;;;;;5069274;28;20024;-71
2022/03/08 04:46:29;;;;;;;35.20;17.33;;;;;;;;;;5065716;28;20431;-72
2022/03/08 04:48:55;;;;;;;33.83;17.13;;;;;;;;;;5071682;28;20027;-71
2022/03/08 04:51:20;;;;;;;36.03;17.88;;;;;;;;;;5071643;28;20024;-72
2022/03/08 04:53:45;;;;;;;35.20;17.92;;;;;;;;;;5053702;28;20025;-72
2022/03/08 04:56:10;;;;;;;31.77;17.65;;;;;;;;;;5062822;28;20023;-71
2022/03/08 04:58:35;;;;;;;36.28;17.38;;;;;;;;;;5054406;28;20112;-72
2022/03/08 05:01:01;;;;;;;32.00;17.45;;;;;;;;;;5061826;28;20028;-72
2022/03/08 05:03:26;;;;;;;34.53;17.38;;;;;;;;;;5051731;28;20024;-72
2022/03/08 05:05:51;;;;;;;32.90;17.75;;;;;;;;;;5055746;28;20025;-72
2022/03/08 05:08:16;;;;;;;31.17;16.70;;;;;;;;;;5059026;28;20020;-72
2022/03/08 05:10:42;;;;;;;30.10;16.45;;;;;;;;;;5070204;28;20393;-72
2022/03/08 05:13:07;;;;;;;32.83;17.17;;;;;;;;;;5066219;28;20055;-72
2022/03/08 05:15:32;;;;;;;37.53;18.67;;;;;;;;;;5066712;28;20047;-72
2022/03/08 05:17:57;;;;;;;30.95;17.25;;;;;;;;;;5067134;28;20013;-72
2022/03/08 05:20:22;;;;;;;38.30;17.63;;;;;;;;;;5062769;28;20051;-72
2022/03/08 05:22:48;;;;;;;34.70;17.88;;;;;;;;;;5069747;28;20477;-72
2022/03/08 05:25:13;;;;;;;30.50;16.75;;;;;;;;;;5069900;28;20484;-71
2022/03/08 05:27:38;;;;;;;31.10;16.48;;;;;;;;;;5053587;28;20481;-72
2022/03/08 05:30:04;;;;;;;30.40;16.10;;;;;;;;;;5069312;28;20054;-72
2022/03/08 05:32:29;;;;;;;33.95;17.95;;;;;;;;;;5067045;28;20129;-72
2022/03/08 05:34:54;;;;;;;31.40;16.30;;;;;;;;;;5050891;28;20025;-72
2022/03/08 05:37:20;;;;;;;34.58;16.67;;;;;;;;;;5055410;28;20017;-72
2022/03/08 05:39:45;;;;;;;31.67;17.23;;;;;;;;;;5064760;28;20108;-72
2022/03/08 05:42:10;;;;;;;32.65;17.40;;;;;;;;;;5059064;28;20116;-72
2022/03/08 05:44:36;;;;;;;39.88;18.17;;;;;;;;;;5066024;28;20032;-71
2022/03/08 05:47:01;;;;;;;35.00;17.52;;;;;;;;;;5065535;28;20049;-72
2022/03/08 05:49:27;;;;;;;29.33;16.33;;;;;;;;;;5070534;28;20037;-72
2022/03/08 05:51:52;;;;;;;30.80;16.65;;;;;;;;;;5069369;28;20021;-72
2022/03/08 05:54:17;;;;;;;30.13;16.55;;;;;;;;;;5065925;28;20028;-72
2022/03/08 05:56:42;;;;;;;34.72;17.90;;;;;;;;;;5068783;28;20441;-72
2022/03/08 05:59:08;;;;;;;32.70;17.58;;;;;;;;;;5052725;28;20024;-72
2022/03/08 06:01:33;;;;;;;32.92;17.45;;;;;;;;;;5060036;28;20059;-72
2022/03/08 06:03:58;;;;;;;29.98;17.25;;;;;;;;;;5059233;28;20501;-72
2022/03/08 06:06:23;;;;;;;35.80;17.98;;;;;;;;;;5069065;28;20111;-72
2022/03/08 06:08:49;;;;;;;34.65;18.05;;;;;;;;;;5067356;28;20473;-72
2022/03/08 06:11:15;;;;;;;40.78;17.35;;;;;;;;;;5065638;28;20028;-72
2022/03/08 06:13:40;;;;;;;29.60;16.55;;;;;;;;;;5068761;28;20028;-71
2022/03/08 06:16:05;;;;;;;32.38;18.13;;;;;;;;;;5060873;28;20071;-71
2022/03/08 06:18:30;;;;;;;39.33;18.60;;;;;;;;;;5050216;28;20052;-72
2022/03/08 06:20:56;;;;;;;37.30;17.92;;;;;;;;;;5054308;28;20099;-71
2022/03/08 06:23:21;;;;;;;33.17;17.67;;;;;;;;;;5050353;28;20521;-72
2022/03/08 06:25:46;;;;;;;35.53;17.20;;;;;;;;;;5059049;28;20040;-71
2022/03/08 06:28:11;;;;;;;30.23;16.95;;;;;;;;;;5065024;28;20028;-72
2022/03/08 06:30:36;;;;;;;35.83;18.15;;;;;;;;;;5054246;28;20060;-71
2022/03/08 06:33:02;;;;;;;34.90;17.88;;;;;;;;;;5054708;28;20029;-72
2022/03/08 06:35:27;;;;;;;34.95;17.42;;;;;;;;;;5057734;28;20025;-72
2022/03/08 06:37:52;;;;;;;36.17;17.60;;;;;;;;;;5050614;28;20025;-72
2022/03/08 06:40:18;;;;;;;37.03;17.88;;;;;;;;;;5062753;28;20027;-72
2022/03/08 06:42:43;;;;;;;35.35;18.23;;;;;;;;;;5057012;28;20020;-72
2022/03/08 06:45:08;;;;;;;31.60;18.00;;;;;;;;;;5068581;28;20029;-72
2022/03/08 06:47:33;;;;;;;35.25;18.63;;;;;;;;;;5070121;28;20027;-72
2022/03/08 06:49:59;;;;;;;35.33;17.75;;;;;;;;;;5054129;28;20100;-72
2022/03/08 06:52:24;;;;;;;36.63;18.27;;;;;;;;;;5068671;28;20154;-72
2022/03/08 06:54:49;;;;;;;37.28;18.08;;;;;;;;;;5068550;28;20060;-72
2022/03/08 06:57:14;;;;;;;35.10;18.55;;;;;;;;;;5063967;28;20535;-72
2022/03/08 06:59:39;;;;;;;33.72;17.52;;;;;;;;;;5049888;28;20124;-72
2022/03/08 07:02:05;;;;;;;35.55;17.75;;;;;;;;;;5067974;28;20035;-72
2022/03/08 07:04:30;;;;;;;32.60;17.70;;;;;;;;;;5068641;28;20263;-72
2022/03/08 07:06:55;;;;;;;32.28;17.15;;;;;;;;;;5064201;28;20105;-72
2022/03/08 07:09:21;;;;;;;39.53;18.10;;;;;;;;;;5069113;28;20040;-72
2022/03/08 07:11:46;;;;;;;29.67;17.20;;;;;;;;;;5048229;28;20184;-73
2022/03/08 07:14:15;;;;;;;30.27;17.80;;;;;;;;;;5068415;28;20021;-72
2022/03/08 07:16:40;;;;;;;35.05;18.45;;;;;;;;;;5068754;28;20028;-72
2022/03/08 07:19:06;;;;;;;35.45;18.73;;;;;;;;;;5068723;28;20082;-72
2022/03/08 07:21:32;;;;;;;32.78;17.48;;;;;;;;;;5067222;28;20469;-72
2022/03/08 07:23:57;;;;;;;31.33;17.52;;;;;;;;;;5054775;28;20031;-72
2022/03/08 07:26:22;;;;;;;37.35;18.13;;;;;;;;;;5068406;28;20021;-72
2022/03/08 07:28:47;;;;;;;34.92;17.80;;;;;;;;;;5066914;28;20028;-72
2022/03/08 07:31:12;;;;;;;37.65;19.55;;;;;;;;;;5055188;28;20036;-72
2022/03/08 07:33:38;;;;;;;32.78;17.38;;;;;;;;;;5067332;28;20028;-72
2022/03/08 07:36:03;;;;;;;37.42;19.33;;;;;;;;;;5052100;28;20025;-72
2022/03/08 07:38:29;;;;;;;33.05;18.38;;;;;;;;;;5060538;28;20021;-71
2022/03/08 07:40:54;;;;;;;36.55;18.75;;;;;;;;;;5066526;28;20024;-72
2022/03/08 07:43:19;;;;;;;33.33;17.80;;;;;;;;;;5059828;28;20372;-72
2022/03/08 07:45:44;;;;;;;33.78;18.58;;;;;;;;;;5068157;28;20083;-72
2022/03/08 07:48:09;;;;;;;39.40;19.17;;;;;;;;;;5069787;28;20029;-72
2022/03/08 07:50:37;;;;;;;35.60;18.90;;;;;;;;;;5064937;28;20488;-72
2022/03/08 07:53:03;;;;;;;34.75;19.23;;;;;;;;;;5071778;28;20032;-71
2022/03/08 07:55:29;;;;;;;36.83;19.55;;;;;;;;;;5071668;28;20500;-72
2022/03/08 07:57:55;;;;;;;29.98;16.73;;;;;;;;;;5070138;28;20027;-71
2022/03/08 08:00:20;;;;;;;33.97;18.35;;;;;;;;;;5067339;28;20029;-71
2022/03/08 08:02:45;;;;;;;29.65;16.98;;;;;;;;;;5060118;28;20550;-72
2022/03/08 08:05:10;;;;;;;29.85;17.75;;;;;;;;;;5058626;28;20021;-72
2022/03/08 08:07:36;;;;;;;30.48;17.70;;;;;;;;;;5052787;28;20020;-72
2022/03/08 08:10:01;;;;;;;30.52;17.08;;;;;;;;;;5067705;28;20036;-71
2022/03/08 08:12:26;;;;;;;31.13;17.65;;;;;;;;;;5057200;28;20528;-72
2022/03/08 08:14:51;;;;;;;27.98;16.75;;;;;;;;;;5071231;28;20657;-72
2022/03/08 08:17:18;;;;;;;31.42;17.30;;;;;;;;;;5059677;28;20055;-72
2022/03/08 08:19:43;;;;;;;31.88;18.00;;;;;;;;;;5069370;28;20028;-72
2022/03/08 08:22:08;;;;;;;33.25;17.00;;;;;;;;;;5059169;28;20013;-72
2022/03/08 08:24:33;;;;;;;30.63;17.65;;;;;;;;;;5068881;28;20121;-72
2022/03/08 08:26:58;;;;;;;32.83;17.35;;;;;;;;;;5067869;28;20085;-72
2022/03/08 08:29:23;;;;;;;31.17;17.75;;;;;;;;;;5062834;28;20052;-72
2022/03/08 08:31:49;;;;;;;29.58;16.15;;;;;;;;;;5069883;28;20166;-72
2022/03/08 08:34:14;;;;;;;26.77;15.25;;;;;;;;;;5060799;28;20473;-72
2022/03/08 08:36:39;;;;;;;27.60;15.98;;;;;;;;;;5065201;28;20497;-72
2022/03/08 08:39:04;;;;;;;28.02;15.98;;;;;;;;;;5067228;28;20035;-72
2022/03/08 08:41:30;;;;;;;27.90;15.15;;;;;;;;;;5054430;28;20509;-72
2022/03/08 08:43:55;;;;;;;26.65;14.98;;;;;;;;;;5065095;28;20025;-72
2022/03/08 08:46:20;;;;;;;28.67;16.33;;;;;;;;;;5070730;28;20033;-72
2022/03/08 08:48:45;;;;;;;27.50;14.68;;;;;;;;;;5060514;28;20029;-72
2022/03/08 08:51:10;;;;;;;25.08;14.82;;;;;;;;;;5069698;28;20400;-72
2022/03/08 08:53:36;;;;;;;27.00;15.85;;;;;;;;;;5062800;28;20070;-72
2022/03/08 08:56:01;;;;;;;26.73;15.73;;;;;;;;;;5056541;28;20489;-72
2022/03/08 08:58:26;;;;;;;24.73;16.00;;;;;;;;;;5062530;28;20032;-72
2022/03/08 09:00:51;;;;;;;25.05;14.35;;;;;;;;;;5062600;28;20123;-72
2022/03/08 09:03:16;;;;;;;28.77;15.02;;;;;;;;;;5055717;28;20021;-72
2022/03/08 09:05:42;;;;;;;26.90;15.80;;;;;;;;;;5065936;28;20530;-72
2022/03/08 09:08:08;;;;;;;27.90;16.35;;;;;;;;;;5059858;28;20024;-72
2022/03/08 09:10:33;;;;;;;28.90;15.77;;;;;;;;;;5067069;28;20848;-72
2022/03/08 09:12:58;;;;;;;27.55;15.88;;;;;;;;;;5065489;28;20021;-72
2022/03/08 09:15:23;;;;;;;28.77;16.13;;;;;;;;;;5060005;28;20108;-71
2022/03/08 09:17:49;;;;;;;31.50;15.10;;;;;;;;;;5061104;28;20020;-72
2022/03/08 09:20:14;;;;;;;25.05;15.07;;;;;;;;;;5065126;28;20024;-72
2022/03/08 09:22:39;;;;;;;25.77;15.77;;;;;;;;;;5064550;28;20087;-72
2022/03/08 09:25:05;;;;;;;26.00;15.25;;;;;;;;;;5061894;28;20415;-72
2022/03/08 09:27:30;;;;;;;26.98;15.35;;;;;;;;;;5055124;28;20082;-72
2022/03/08 09:29:56;;;;;;;25.05;14.82;;;;;;;;;;5062087;28;20025;-72
2022/03/08 09:32:21;;;;;;;27.33;14.77;;;;;;;;;;5056523;28;20421;-72
2022/03/08 09:34:46;;;;;;;28.80;15.75;;;;;;;;;;5067402;28;20025;-72
2022/03/08 09:37:11;;;;;;;30.73;15.20;;;;;;;;;;5065713;28;20023;-72
2022/03/08 09:39:37;;;;;;;22.10;13.85;;;;;;;;;;5069484;28;20405;-72
2022/03/08 09:42:02;;;;;;;23.00;13.77;;;;;;;;;;5059238;28;20059;-72
2022/03/08 09:44:28;;;;;;;21.45;13.43;;;;;;;;;;5061687;28;20369;-72
2022/03/08 09:46:53;;;;;;;24.27;14.10;;;;;;;;;;5057488;28;20196;-71
2022/03/08 09:49:19;;;;;;;25.30;13.13;;;;;;;;;;5058852;28;20483;-72
2022/03/08 09:51:44;;;;;;;26.38;13.57;;;;;;;;;;5065889;28;20031;-72
2022/03/08 09:54:09;;;;;;;20.83;12.65;;;;;;;;;;5056948;28;20024;-72
2022/03/08 09:56:35;;;;;;;21.50;12.30;;;;;;;;;;5069268;28;20103;-72
2022/03/08 09:59:00;;;;;;;21.70;13.50;;;;;;;;;;5061823;28;20104;-72
2022/03/08 10:01:26;;;;;;;24.33;12.60;;;;;;;;;;5056105;28;20411;-72
2022/03/08 10:03:51;;;;;;;21.73;12.68;;;;;;;;;;5052768;28;20043;-72
2022/03/08 10:06:16;;;;;;;21.40;11.40;;;;;;;;;;5054755;28;20021;-72
2022/03/08 10:08:42;;;;;;;20.65;13.05;;;;;;;;;;5065891;28;20028;-72
2022/03/08 10:11:09;;;;;;;19.90;11.80;;;;;;;;;;5066652;28;20078;-72
2022/03/08 10:13:46;;;;;;;21.80;11.10;;;;;;;;;;5068669;28;20024;-72
2022/03/08 10:16:15;;;;;;;17.23;11.35;;;;;;;;;;5060930;28;20040;-72
2022/03/08 10:18:45;;;;;;;21.95;11.98;;;;;;;;;;5066029;28;20031;-72
2022/03/08 10:21:25;;;;;;;19.70;11.80;;;;;;;;;;5055728;28;20025;-72
2022/03/08 10:23:52;;;;;;;19.42;10.90;;;;;;;;;;5062463;28;20040;-72
2022/03/08 10:26:17;;;;;;;19.90;10.57;;;;;;;;;;5059746;28;20116;-72
2022/03/08 10:28:44;;;;;;;17.52;10.30;;;;;;;;;;5067412;28;20638;-72
2022/03/08 10:31:11;;;;;;;14.27;9.38;;;;;;;;;;5057927;28;20067;-72
2022/03/08 10:33:37;;;;;;;13.82;8.25;;;;;;;;;;5062541;28;20043;-72
2022/03/08 10:36:02;;;;;;;13.55;8.00;;;;;;;;;;5059487;28;20116;-72
2022/03/08 10:38:27;;;;;;;13.60;7.35;;;;;;;;;;5053869;28;20517;-72
2022/03/08 10:40:52;;;;;;;13.57;7.80;;;;;;;;;;5052270;28;20033;-72
2022/03/08 10:43:18;;;;;;;11.25;7.65;;;;;;;;;;5073115;28;20059;-71
2022/03/08 10:45:44;;;;;;;17.52;7.70;;;;;;;;;;5068497;28;20035;-72
2022/03/08 10:48:10;;;;;;;10.10;7.03;;;;;;;;;;5056713;28;20039;-71
2022/03/08 10:50:36;;;;;;;9.68;6.60;;;;;;;;;;5065341;28;20051;-72
2022/03/08 10:53:02;;;;;;;12.10;7.22;;;;;;;;;;5068437;28;20024;-72
2022/03/08 10:55:32;;;;;;;11.82;7.63;;;;;;;;;;5057551;28;20404;-71
2022/03/08 10:58:01;;;;;;;13.23;7.72;;;;;;;;;;5068548;28;20093;-72
2022/03/08 11:00:35;;;;;;;13.38;7.63;;;;;;;;;;5067206;28;20139;-71
2022/03/08 11:03:05;;;;;;;15.13;7.97;;;;;;;;;;5053494;28;20040;-72
2022/03/08 11:05:35;;;;;;;9.50;7.20;;;;;;;;;;5050192;28;20171;-72
2022/03/08 11:08:00;;;;;;;11.30;7.10;;;;;;;;;;5058703;28;20025;-72
2022/03/08 11:10:26;;;;;;;11.48;7.18;;;;;;;;;;5054989;28;20278;-72
2022/03/08 11:12:55;;;;;;;10.43;6.70;;;;;;;;;;5064815;28;20025;-72
2022/03/08 11:15:21;;;;;;;13.27;7.10;;;;;;;;;;5068411;28;20166;-72
2022/03/08 11:17:48;;;;;;;12.38;6.35;;;;;;;;;;5052723;28;20525;-72
2022/03/08 11:20:15;;;;;;;9.25;6.70;;;;;;;;;;5068590;28;20404;-72
2022/03/08 11:22:40;;;;;;;8.40;6.60;;;;;;;;;;5072362;28;20025;-72
2022/03/08 11:25:06;;;;;;;12.45;6.60;;;;;;;;;;5052270;28;20040;-72
2022/03/08 11:27:32;;;;;;;10.35;6.55;;;;;;;;;;5058490;28;20378;-72
2022/03/08 11:29:57;;;;;;;12.43;5.90;;;;;;;;;;5066103;28;20027;-72
2022/03/08 11:32:43;;;;;;;8.35;6.10;;;;;;;;;;5053683;28;20065;-72
2022/03/08 11:35:30;;;;;;;7.93;6.10;;;;;;;;;;5051871;28;20389;-72
2022/03/08 11:37:55;;;;;;;8.50;5.90;;;;;;;;;;5065184;28;20028;-73
2022/03/08 11:40:21;;;;;;;9.65;5.95;;;;;;;;;;5062814;28;20051;-72
2022/03/08 11:42:50;;;;;;;7.80;5.47;;;;;;;;;;5055311;28;20028;-73
2022/03/08 11:45:23;;;;;;;13.38;6.05;;;;;;;;;;5071838;28;20139;-72
2022/03/08 11:48:02;;;;;;;9.10;5.95;;;;;;;;;;5062797;28;20099;-72
2022/03/08 11:50:28;;;;;;;9.82;6.07;;;;;;;;;;5060652;28;20032;-73
2022/03/08 11:53:06;;;;;;;13.27;6.25;;;;;;;;;;5071701;28;20489;-72
2022/03/08 11:55:56;;;;;;;8.45;5.95;;;;;;;;;;5059253;28;20078;-72
2022/03/08 11:58:41;;;;;;;7.30;5.90;;;;;;;;;;5070585;28;20032;-73
2022/03/08 12:01:06;;;;;;;9.93;5.90;;;;;;;;;;5067423;28;20029;-72
2022/03/08 12:03:31;;;;;;;7.05;5.15;;;;;;;;;;5068992;28;20086;-72
2022/03/08 12:06:18;;;;;;;8.80;5.45;;;;;;;;;;5063388;28;20028;-72
2022/03/08 12:08:47;;;;;;;12.18;6.13;;;;;;;;;;5061972;28;20473;-72
2022/03/08 12:11:29;;;;;;;8.50;5.88;;;;;;;;;;5067876;28;20035;-72
2022/03/08 12:13:59;;;;;;;15.02;6.25;;;;;;;;;;5062239;28;20064;-73
2022/03/08 12:16:25;;;;;;;7.32;5.35;;;;;;;;;;5053966;28;20047;-72
2022/03/08 12:18:52;;;;;;;9.27;6.40;;;;;;;;;;5066294;28;20482;-73
2022/03/08 12:21:17;;;;;;;7.35;5.63;;;;;;;;;;5051247;28;20460;-73
2022/03/08 12:24:01;;;;;;;9.52;5.40;;;;;;;;;;5052451;28;20025;-74
2022/03/08 12:26:27;;;;;;;8.83;6.17;;;;;;;;;;5064111;28;20195;-72
2022/03/08 12:29:15;;;;;;;7.45;5.43;;;;;;;;;;5068741;28;20032;-72
2022/03/08 12:31:58;;;;;;;7.40;5.47;;;;;;;;;;5064374;28;20505;-73
2022/03/08 12:34:32;;;;;;;9.80;5.90;;;;;;;;;;5064640;28;20109;-74
2022/03/08 12:37:08;;;;;;;8.98;4.90;;;;;;;;;;5067675;28;20516;-74
2022/03/08 12:39:54;;;;;;;6.85;5.20;;;;;;;;;;5059686;28;20039;-74
2022/03/08 12:42:26;;;;;;;9.85;5.65;;;;;;;;;;5065030;28;20029;-73
2022/03/08 12:44:55;;;;;;;7.72;5.50;;;;;;;;;;5059125;28;20078;-73
2022/03/08 12:47:20;;;;;;;7.78;4.53;;;;;;;;;;5057870;28;20028;-73
2022/03/08 12:49:46;;;;;;;13.60;5.70;;;;;;;;;;5070397;28;20528;-74
2022/03/08 12:52:12;;;;;;;7.32;4.95;;;;;;;;;;5065455;28;20434;-73
2022/03/08 12:54:39;;;;;;;12.13;5.30;;;;;;;;;;5054101;28;20155;-73
2022/03/08 12:57:04;;;;;;;7.80;5.30;;;;;;;;;;5067859;28;20039;-73
2022/03/08 12:59:29;;;;;;;7.07;5.50;;;;;;;;;;5063957;28;20017;-73
2022/03/08 13:02:07;;;;;;;7.63;5.28;;;;;;;;;;5065819;28;20037;-73
2022/03/08 13:04:32;;;;;;;6.80;5.05;;;;;;;;;;5072188;28;20028;-73
2022/03/08 13:07:10;;;;;;;8.45;5.28;;;;;;;;;;5054433;28;20020;-72
2022/03/08 13:09:51;;;;;;;6.90;5.22;;;;;;;;;;5063650;28;20071;-73
2022/03/08 13:12:21;;;;;;;7.70;5.13;;;;;;;;;;5058420;28;20505;-73
2022/03/08 13:15:15;;;;;;;8.77;5.45;;;;;;;;;;5061544;28;20082;-73
2022/03/08 13:17:43;;;;;;;8.75;5.50;;;;;;;;;;5064888;28;20020;-73
2022/03/08 13:20:29;;;;;;;8.50;5.80;;;;;;;;;;5055032;28;20020;-73
2022/03/08 13:22:55;;;;;;;8.98;5.55;;;;;;;;;;5050826;28;20033;-73
2022/03/08 13:25:20;;;;;;;7.35;5.30;;;;;;;;;;5062994;28;20032;-73
2022/03/08 13:27:59;;;;;;;7.50;5.65;;;;;;;;;;5078539;28;20091;-73
2022/03/08 13:30:25;;;;;;;6.88;5.70;;;;;;;;;;5067932;28;20032;-73
2022/03/08 13:33:10;;;;;;;8.82;5.35;;;;;;;;;;5059346;28;20036;-72
2022/03/08 13:35:36;;;;;;;10.27;5.40;;;;;;;;;;5061430;28;20103;-72
2022/03/08 13:38:01;;;;;;;6.30;5.07;;;;;;;;;;5058919;28;20038;-73
2022/03/08 13:40:27;;;;;;;6.53;5.25;;;;;;;;;;5059729;28;20232;-73
2022/03/08 13:42:52;;;;;;;10.60;5.65;;;;;;;;;;5059819;28;20120;-73
2022/03/08 13:45:17;;;;;;;5.57;5.00;;;;;;;;;;5062576;28;20031;-73
2022/03/08 13:47:43;;;;;;;6.05;5.32;;;;;;;;;;5069438;28;20023;-72
2022/03/08 13:50:08;;;;;;;5.82;4.72;;;;;;;;;;5070613;28;20024;-73
2022/03/08 13:52:34;;;;;;;6.07;4.95;;;;;;;;;;5051691;28;20708;-73
2022/03/08 13:54:59;;;;;;;6.53;4.97;;;;;;;;;;5069048;28;20016;-71
2022/03/08 13:57:24;;;;;;;6.10;5.25;;;;;;;;;;5063772;28;20037;-71
2022/03/08 13:59:50;;;;;;;5.20;4.72;;;;;;;;;;5056995;28;20040;-71
2022/03/08 14:02:17;;;;;;;6.35;4.30;;;;;;;;;;5062820;28;20033;-71
2022/03/08 14:04:42;;;;;;;5.60;5.10;;;;;;;;;;5058626;28;20712;-71
2022/03/08 14:07:08;;;;;;;6.22;5.43;;;;;;;;;;5062707;28;20028;-72
2022/03/08 14:09:33;;;;;;;5.50;4.90;;;;;;;;;;5056773;28;20021;-71
2022/03/08 14:12:00;;;;;;;7.22;4.95;;;;;;;;;;5064112;28;20032;-71
2022/03/08 14:14:27;;;;;;;6.60;4.85;;;;;;;;;;5065023;28;20029;-72
2022/03/08 14:16:52;;;;;;;4.93;4.50;;;;;;;;;;5061420;28;20547;-71
2022/03/08 14:19:23;;;;;;;5.47;4.97;;;;;;;;;;5045674;28;20028;-71